sensor_id;sensor_type;location;lat;lon;timestamp;temperature;humidity
431;DHT22;202;48.764;9.172;2023-03-29T00:00:01;9.00;49.60
431;DHT22;202;48.764;9.172;2023-03-29T00:02:46;9.00;51.80
431;DHT22;202;48.764;9.172;2023-03-29T00:05:18;9.10;50.70
431;DHT22;202;48.764;9.172;2023-03-29T00:07:50;9.10;51.60
431;DHT22;202;48.764;9.172;2023-03-29T00:15:52;8.90;53.30
431;DHT22;202;48.764;9.172;2023-03-29T00:17:24;9.00;53.40
431;DHT22;202;48.764;9.172;2023-03-29T00:20:09;8.70;53.10
431;DHT22;202;48.764;9.172;2023-03-29T00:22:39;8.60;53.10
431;DHT22;202;48.764;9.172;2023-03-29T00:25:11;8.50;53.00
431;DHT22;202;48.764;9.172;2023-03-29T00:27:38;8.40;54.30
431;DHT22;202;48.764;9.172;2023-03-29T00:33:17;8.60;54.90
431;DHT22;202;48.764;9.172;2023-03-29T00:35:45;8.50;54.80
431;DHT22;202;48.764;9.172;2023-03-29T00:38:13;8.50;54.70
431;DHT22;202;48.764;9.172;2023-03-29T00:40:45;8.60;54.60
431;DHT22;202;48.764;9.172;2023-03-29T00:43:13;8.70;54.90
431;DHT22;202;48.764;9.172;2023-03-29T00:45:42;8.80;55.10
431;DHT22;202;48.764;9.172;2023-03-29T00:48:11;8.80;52.60
431;DHT22;202;48.764;9.172;2023-03-29T00:50:44;8.80;52.50
431;DHT22;202;48.764;9.172;2023-03-29T00:53:16;8.90;51.40
431;DHT22;202;48.764;9.172;2023-03-29T00:55:50;8.90;52.20
431;DHT22;202;48.764;9.172;2023-03-29T00:58:29;8.90;52.40
431;DHT22;202;48.764;9.172;2023-03-29T01:01:02;9.00;52.50
431;DHT22;202;48.764;9.172;2023-03-29T01:07:03;8.90;50.00
431;DHT22;202;48.764;9.172;2023-03-29T01:09:37;8.90;51.10
431;DHT22;202;48.764;9.172;2023-03-29T01:12:14;8.60;51.00
431;DHT22;202;48.764;9.172;2023-03-29T01:15:09;8.60;51.90
431;DHT22;202;48.764;9.172;2023-03-29T01:17:42;8.60;52.10
431;DHT22;202;48.764;9.172;2023-03-29T01:20:28;8.40;52.90
431;DHT22;202;48.764;9.172;2023-03-29T01:23:43;8.50;53.00
431;DHT22;202;48.764;9.172;2023-03-29T01:26:28;8.50;52.70
431;DHT22;202;48.764;9.172;2023-03-29T01:29:07;8.40;52.90
431;DHT22;202;48.764;9.172;2023-03-29T01:32:17;8.60;53.10
431;DHT22;202;48.764;9.172;2023-03-29T01:35:03;8.80;53.10
431;DHT22;202;48.764;9.172;2023-03-29T01:38:09;8.70;51.90
431;DHT22;202;48.764;9.172;2023-03-29T01:40:55;8.70;52.20
431;DHT22;202;48.764;9.172;2023-03-29T01:43:30;8.70;53.00
431;DHT22;202;48.764;9.172;2023-03-29T01:46:32;8.70;52.60
431;DHT22;202;48.764;9.172;2023-03-29T01:49:13;8.60;52.20
431;DHT22;202;48.764;9.172;2023-03-29T01:51:58;8.60;52.70
431;DHT22;202;48.764;9.172;2023-03-29T01:54:46;8.70;53.10
431;DHT22;202;48.764;9.172;2023-03-29T01:57:14;8.80;52.50
431;DHT22;202;48.764;9.172;2023-03-29T01:59:45;8.60;53.10
431;DHT22;202;48.764;9.172;2023-03-29T02:02:17;8.50;53.10
431;DHT22;202;48.764;9.172;2023-03-29T02:04:48;8.40;53.10
431;DHT22;202;48.764;9.172;2023-03-29T02:07:22;8.50;54.10
431;DHT22;202;48.764;9.172;2023-03-29T02:09:51;8.50;54.50
431;DHT22;202;48.764;9.172;2023-03-29T02:12:19;8.50;54.90
431;DHT22;202;48.764;9.172;2023-03-29T02:14:50;8.50;53.50
431;DHT22;202;48.764;9.172;2023-03-29T02:17:27;8.60;53.10
431;DHT22;202;48.764;9.172;2023-03-29T02:20:12;8.60;53.10
431;DHT22;202;48.764;9.172;2023-03-29T02:23:00;8.60;53.10
431;DHT22;202;48.764;9.172;2023-03-29T02:25:48;8.60;53.10
431;DHT22;202;48.764;9.172;2023-03-29T02:28:18;8.60;53.10
431;DHT22;202;48.764;9.172;2023-03-29T02:30:51;8.50;53.00
431;DHT22;202;48.764;9.172;2023-03-29T02:33:25;8.40;54.50
431;DHT22;202;48.764;9.172;2023-03-29T02:35:56;8.50;53.90
431;DHT22;202;48.764;9.172;2023-03-29T02:38:25;8.40;54.30
431;DHT22;202;48.764;9.172;2023-03-29T02:40:56;8.40;54.40
431;DHT22;202;48.764;9.172;2023-03-29T02:43:28;8.50;54.50
431;DHT22;202;48.764;9.172;2023-03-29T02:45:56;8.60;54.40
431;DHT22;202;48.764;9.172;2023-03-29T02:48:27;8.70;54.00
431;DHT22;202;48.764;9.172;2023-03-29T02:50:59;8.80;53.30
431;DHT22;202;48.764;9.172;2023-03-29T02:53:30;8.80;53.20
431;DHT22;202;48.764;9.172;2023-03-29T03:29:44;7.90;51.70
431;DHT22;202;48.764;9.172;2023-03-29T03:32:11;8.00;51.70
431;DHT22;202;48.764;9.172;2023-03-29T03:34:38;8.10;51.40
431;DHT22;202;48.764;9.172;2023-03-29T03:40:37;8.20;50.90
431;DHT22;202;48.764;9.172;2023-03-29T04:04:35;8.30;48.60
431;DHT22;202;48.764;9.172;2023-03-29T04:07:17;8.40;48.10
431;DHT22;202;48.764;9.172;2023-03-29T04:09:57;8.40;47.20
431;DHT22;202;48.764;9.172;2023-03-29T04:12:32;8.40;48.10
431;DHT22;202;48.764;9.172;2023-03-29T04:15:08;8.70;46.80
431;DHT22;202;48.764;9.172;2023-03-29T04:17:36;8.80;46.10
431;DHT22;202;48.764;9.172;2023-03-29T04:20:14;8.90;45.20
431;DHT22;202;48.764;9.172;2023-03-29T04:22:47;8.80;45.50
431;DHT22;202;48.764;9.172;2023-03-29T04:25:15;8.80;46.30
431;DHT22;202;48.764;9.172;2023-03-29T04:27:44;8.70;45.40
431;DHT22;202;48.764;9.172;2023-03-29T04:30:14;8.80;45.60
431;DHT22;202;48.764;9.172;2023-03-29T04:32:41;8.90;44.80
431;DHT22;202;48.764;9.172;2023-03-29T04:35:19;9.00;44.30
431;DHT22;202;48.764;9.172;2023-03-29T04:37:48;8.90;44.30
431;DHT22;202;48.764;9.172;2023-03-29T04:40:19;9.00;44.30
431;DHT22;202;48.764;9.172;2023-03-29T04:42:46;9.20;44.00
431;DHT22;202;48.764;9.172;2023-03-29T04:45:16;9.30;44.00
431;DHT22;202;48.764;9.172;2023-03-29T04:47:44;9.40;43.40
431;DHT22;202;48.764;9.172;2023-03-29T04:50:13;9.20;43.20
431;DHT22;202;48.764;9.172;2023-03-29T04:52:48;9.40;43.00
431;DHT22;202;48.764;9.172;2023-03-29T04:55:18;9.50;43.10
431;DHT22;202;48.764;9.172;2023-03-29T04:57:49;9.50;43.30
431;DHT22;202;48.764;9.172;2023-03-29T05:00:21;9.60;42.90
431;DHT22;202;48.764;9.172;2023-03-29T05:02:52;9.70;40.80
431;DHT22;202;48.764;9.172;2023-03-29T05:05:20;9.70;41.50
431;DHT22;202;48.764;9.172;2023-03-29T05:38:19;9.90;39.60
431;DHT22;202;48.764;9.172;2023-03-29T05:40:58;10.00;39.00
431;DHT22;202;48.764;9.172;2023-03-29T05:43:33;10.00;38.70
431;DHT22;202;48.764;9.172;2023-03-29T05:46:00;9.90;39.70
431;DHT22;202;48.764;9.172;2023-03-29T05:48:32;10.00;38.70
431;DHT22;202;48.764;9.172;2023-03-29T05:51:07;10.10;38.80
431;DHT22;202;48.764;9.172;2023-03-29T05:53:36;10.10;38.80
431;DHT22;202;48.764;9.172;2023-03-29T05:56:06;10.00;38.80
431;DHT22;202;48.764;9.172;2023-03-29T05:58:52;9.80;40.60
431;DHT22;202;48.764;9.172;2023-03-29T06:01:26;9.80;40.20
431;DHT22;202;48.764;9.172;2023-03-29T06:03:53;9.70;40.60
431;DHT22;202;48.764;9.172;2023-03-29T06:06:20;9.80;41.00
431;DHT22;202;48.764;9.172;2023-03-29T06:08:48;9.80;40.40
431;DHT22;202;48.764;9.172;2023-03-29T06:11:16;9.70;41.00
431;DHT22;202;48.764;9.172;2023-03-29T06:13:43;9.60;41.30
431;DHT22;202;48.764;9.172;2023-03-29T06:16:10;9.80;41.10
431;DHT22;202;48.764;9.172;2023-03-29T06:18:52;9.70;41.00
431;DHT22;202;48.764;9.172;2023-03-29T06:21:23;9.80;40.60
431;DHT22;202;48.764;9.172;2023-03-29T06:23:55;9.90;40.70
431;DHT22;202;48.764;9.172;2023-03-29T06:26:22;10.00;39.30
431;DHT22;202;48.764;9.172;2023-03-29T06:28:51;10.20;38.90
431;DHT22;202;48.764;9.172;2023-03-29T06:31:21;10.30;39.00
431;DHT22;202;48.764;9.172;2023-03-29T06:33:49;10.30;38.70
431;DHT22;202;48.764;9.172;2023-03-29T06:36:16;10.50;38.40
431;DHT22;202;48.764;9.172;2023-03-29T06:38:44;10.70;37.90
431;DHT22;202;48.764;9.172;2023-03-29T06:41:13;10.70;39.10
431;DHT22;202;48.764;9.172;2023-03-29T06:43:40;10.80;39.40
431;DHT22;202;48.764;9.172;2023-03-29T06:46:15;10.90;39.20
431;DHT22;202;48.764;9.172;2023-03-29T06:48:42;10.90;38.40
431;DHT22;202;48.764;9.172;2023-03-29T06:51:09;11.00;37.40
431;DHT22;202;48.764;9.172;2023-03-29T06:53:36;11.00;37.00
431;DHT22;202;48.764;9.172;2023-03-29T06:56:04;11.10;37.10
431;DHT22;202;48.764;9.172;2023-03-29T06:58:35;11.20;36.90
431;DHT22;202;48.764;9.172;2023-03-29T07:01:02;11.20;36.60
431;DHT22;202;48.764;9.172;2023-03-29T07:03:30;11.20;35.90
431;DHT22;202;48.764;9.172;2023-03-29T07:06:00;11.30;36.10
431;DHT22;202;48.764;9.172;2023-03-29T07:08:34;11.30;35.70
431;DHT22;202;48.764;9.172;2023-03-29T07:11:08;11.40;35.90
431;DHT22;202;48.764;9.172;2023-03-29T07:13:38;11.40;35.80
431;DHT22;202;48.764;9.172;2023-03-29T07:16:07;11.50;35.80
431;DHT22;202;48.764;9.172;2023-03-29T07:18:37;11.60;36.00
431;DHT22;202;48.764;9.172;2023-03-29T07:21:04;11.60;35.20
431;DHT22;202;48.764;9.172;2023-03-29T07:23:32;11.60;36.00
431;DHT22;202;48.764;9.172;2023-03-29T07:25:58;11.70;36.20
431;DHT22;202;48.764;9.172;2023-03-29T07:28:27;11.80;36.40
431;DHT22;202;48.764;9.172;2023-03-29T07:31:02;11.90;36.00
431;DHT22;202;48.764;9.172;2023-03-29T07:33:31;11.90;36.50
431;DHT22;202;48.764;9.172;2023-03-29T07:35:58;11.70;36.50
431;DHT22;202;48.764;9.172;2023-03-29T07:38:25;11.70;36.90
431;DHT22;202;48.764;9.172;2023-03-29T07:40:52;11.60;37.20
431;DHT22;202;48.764;9.172;2023-03-29T07:43:20;11.60;37.90
431;DHT22;202;48.764;9.172;2023-03-29T07:46:02;11.80;37.80
431;DHT22;202;48.764;9.172;2023-03-29T07:48:31;11.80;36.50
431;DHT22;202;48.764;9.172;2023-03-29T07:50:58;11.80;36.80
431;DHT22;202;48.764;9.172;2023-03-29T07:53:25;11.90;37.50
431;DHT22;202;48.764;9.172;2023-03-29T07:55:58;11.90;36.70
431;DHT22;202;48.764;9.172;2023-03-29T07:58:30;12.00;36.80
431;DHT22;202;48.764;9.172;2023-03-29T08:00:58;12.00;36.60
431;DHT22;202;48.764;9.172;2023-03-29T08:03:27;12.10;36.50
431;DHT22;202;48.764;9.172;2023-03-29T08:05:54;12.20;35.90
431;DHT22;202;48.764;9.172;2023-03-29T08:08:21;12.10;35.90
431;DHT22;202;48.764;9.172;2023-03-29T08:10:48;12.20;36.50
431;DHT22;202;48.764;9.172;2023-03-29T08:13:16;12.30;35.90
431;DHT22;202;48.764;9.172;2023-03-29T08:15:43;12.30;36.20
431;DHT22;202;48.764;9.172;2023-03-29T08:18:13;12.30;35.80
431;DHT22;202;48.764;9.172;2023-03-29T08:20:45;12.40;35.90
431;DHT22;202;48.764;9.172;2023-03-29T08:23:14;12.40;35.90
431;DHT22;202;48.764;9.172;2023-03-29T08:25:52;12.50;35.90
431;DHT22;202;48.764;9.172;2023-03-29T08:28:46;12.60;35.60
431;DHT22;202;48.764;9.172;2023-03-29T08:31:22;12.70;35.70
431;DHT22;202;48.764;9.172;2023-03-29T08:33:59;12.70;35.20
431;DHT22;202;48.764;9.172;2023-03-29T08:36:52;12.80;34.80
431;DHT22;202;48.764;9.172;2023-03-29T08:39:27;12.90;34.40
431;DHT22;202;48.764;9.172;2023-03-29T08:42:25;12.90;34.50
431;DHT22;202;48.764;9.172;2023-03-29T08:45:07;12.80;34.20
431;DHT22;202;48.764;9.172;2023-03-29T08:48:11;12.70;34.60
431;DHT22;202;48.764;9.172;2023-03-29T08:51:11;12.60;34.70
431;DHT22;202;48.764;9.172;2023-03-29T08:54:02;12.60;35.00
431;DHT22;202;48.764;9.172;2023-03-29T08:57:09;12.70;34.90
431;DHT22;202;48.764;9.172;2023-03-29T09:10:11;12.90;34.00
431;DHT22;202;48.764;9.172;2023-03-29T09:12:50;13.00;33.70
431;DHT22;202;48.764;9.172;2023-03-29T09:15:22;13.00;33.30
431;DHT22;202;48.764;9.172;2023-03-29T09:17:57;13.10;33.20
431;DHT22;202;48.764;9.172;2023-03-29T09:20:32;13.00;33.20
431;DHT22;202;48.764;9.172;2023-03-29T09:23:14;13.10;33.00
431;DHT22;202;48.764;9.172;2023-03-29T09:25:52;13.10;33.00
431;DHT22;202;48.764;9.172;2023-03-29T09:28:29;13.20;32.10
431;DHT22;202;48.764;9.172;2023-03-29T09:31:04;13.30;31.60
431;DHT22;202;48.764;9.172;2023-03-29T09:33:36;13.30;33.20
431;DHT22;202;48.764;9.172;2023-03-29T09:36:10;13.30;31.20
431;DHT22;202;48.764;9.172;2023-03-29T09:38:41;13.40;32.30
431;DHT22;202;48.764;9.172;2023-03-29T09:41:18;13.50;31.40
431;DHT22;202;48.764;9.172;2023-03-29T09:43:48;13.30;31.60
431;DHT22;202;48.764;9.172;2023-03-29T09:46:20;13.50;31.10
431;DHT22;202;48.764;9.172;2023-03-29T09:48:49;13.70;31.40
431;DHT22;202;48.764;9.172;2023-03-29T09:51:18;14.00;29.40
431;DHT22;202;48.764;9.172;2023-03-29T09:53:48;14.10;28.70
431;DHT22;202;48.764;9.172;2023-03-29T09:56:16;14.10;28.90
431;DHT22;202;48.764;9.172;2023-03-29T09:58:44;14.30;28.90
431;DHT22;202;48.764;9.172;2023-03-29T10:01:14;14.40;29.00
431;DHT22;202;48.764;9.172;2023-03-29T10:03:46;14.60;28.20
431;DHT22;202;48.764;9.172;2023-03-29T10:06:13;14.70;28.40
431;DHT22;202;48.764;9.172;2023-03-29T10:08:46;14.90;28.40
431;DHT22;202;48.764;9.172;2023-03-29T10:11:20;14.60;28.20
431;DHT22;202;48.764;9.172;2023-03-29T10:13:52;14.70;28.30
431;DHT22;202;48.764;9.172;2023-03-29T10:16:29;14.70;28.30
431;DHT22;202;48.764;9.172;2023-03-29T10:19:21;14.90;27.90
431;DHT22;202;48.764;9.172;2023-03-29T10:21:54;15.00;28.50
431;DHT22;202;48.764;9.172;2023-03-29T10:24:46;15.20;27.90
431;DHT22;202;48.764;9.172;2023-03-29T10:27:25;15.20;27.30
431;DHT22;202;48.764;9.172;2023-03-29T10:30:19;15.30;27.70
431;DHT22;202;48.764;9.172;2023-03-29T10:32:57;15.40;27.00
431;DHT22;202;48.764;9.172;2023-03-29T10:35:41;15.60;26.80
431;DHT22;202;48.764;9.172;2023-03-29T10:38:18;15.60;26.50
431;DHT22;202;48.764;9.172;2023-03-29T10:41:04;15.60;26.00
431;DHT22;202;48.764;9.172;2023-03-29T10:43:48;15.80;26.20
431;DHT22;202;48.764;9.172;2023-03-29T10:46:31;16.00;26.50
431;DHT22;202;48.764;9.172;2023-03-29T10:49:27;16.30;25.90
431;DHT22;202;48.764;9.172;2023-03-29T10:52:11;16.60;25.60
431;DHT22;202;48.764;9.172;2023-03-29T10:54:39;16.70;25.70
431;DHT22;202;48.764;9.172;2023-03-29T10:57:08;16.90;24.90
431;DHT22;202;48.764;9.172;2023-03-29T10:59:47;16.90;24.40
431;DHT22;202;48.764;9.172;2023-03-29T11:02:55;16.90;25.00
431;DHT22;202;48.764;9.172;2023-03-29T11:05:32;17.00;25.10
431;DHT22;202;48.764;9.172;2023-03-29T11:11:18;17.00;25.10
431;DHT22;202;48.764;9.172;2023-03-29T11:13:59;17.00;25.10
431;DHT22;202;48.764;9.172;2023-03-29T11:16:34;17.00;25.50
431;DHT22;202;48.764;9.172;2023-03-29T11:22:10;17.20;24.80
431;DHT22;202;48.764;9.172;2023-03-29T11:25:01;17.30;25.10
431;DHT22;202;48.764;9.172;2023-03-29T11:27:40;17.60;24.70
431;DHT22;202;48.764;9.172;2023-03-29T11:30:31;17.60;24.90
431;DHT22;202;48.764;9.172;2023-03-29T11:33:12;17.60;25.70
431;DHT22;202;48.764;9.172;2023-03-29T11:39:29;17.70;25.00
431;DHT22;202;48.764;9.172;2023-03-29T11:42:07;17.60;26.70
431;DHT22;202;48.764;9.172;2023-03-29T11:44:39;17.40;26.00
431;DHT22;202;48.764;9.172;2023-03-29T11:47:13;17.30;28.40
431;DHT22;202;48.764;9.172;2023-03-29T11:49:51;17.20;26.00
431;DHT22;202;48.764;9.172;2023-03-29T11:52:27;17.00;25.80
431;DHT22;202;48.764;9.172;2023-03-29T11:54:58;16.90;26.60
431;DHT22;202;48.764;9.172;2023-03-29T11:57:29;17.10;25.60
431;DHT22;202;48.764;9.172;2023-03-29T12:00:01;17.10;25.50
431;DHT22;202;48.764;9.172;2023-03-29T12:02:33;17.20;25.80
431;DHT22;202;48.764;9.172;2023-03-29T12:05:08;17.20;25.50
431;DHT22;202;48.764;9.172;2023-03-29T12:07:42;17.30;26.00
431;DHT22;202;48.764;9.172;2023-03-29T12:10:17;17.50;24.30
431;DHT22;202;48.764;9.172;2023-03-29T12:12:48;17.70;25.10
431;DHT22;202;48.764;9.172;2023-03-29T12:15:19;17.70;24.20
431;DHT22;202;48.764;9.172;2023-03-29T12:17:57;17.70;23.80
431;DHT22;202;48.764;9.172;2023-03-29T12:20:30;17.80;24.10
431;DHT22;202;48.764;9.172;2023-03-29T12:22:58;17.60;23.20
431;DHT22;202;48.764;9.172;2023-03-29T12:25:29;17.60;23.30
431;DHT22;202;48.764;9.172;2023-03-29T12:28:16;17.50;23.70
431;DHT22;202;48.764;9.172;2023-03-29T12:30:50;17.70;24.60
431;DHT22;202;48.764;9.172;2023-03-29T12:36:38;17.50;24.60
431;DHT22;202;48.764;9.172;2023-03-29T12:39:18;17.50;24.90
431;DHT22;202;48.764;9.172;2023-03-29T12:41:47;17.60;24.00
431;DHT22;202;48.764;9.172;2023-03-29T12:44:19;17.70;24.20
431;DHT22;202;48.764;9.172;2023-03-29T12:46:50;17.70;24.60
431;DHT22;202;48.764;9.172;2023-03-29T12:49:25;17.60;24.50
431;DHT22;202;48.764;9.172;2023-03-29T12:51:55;17.50;24.90
431;DHT22;202;48.764;9.172;2023-03-29T12:54:36;17.60;25.30
431;DHT22;202;48.764;9.172;2023-03-29T12:57:18;17.30;26.00
431;DHT22;202;48.764;9.172;2023-03-29T12:59:46;17.20;27.10
431;DHT22;202;48.764;9.172;2023-03-29T13:02:33;17.30;27.20
431;DHT22;202;48.764;9.172;2023-03-29T13:05:01;17.30;26.90
431;DHT22;202;48.764;9.172;2023-03-29T13:07:44;17.30;27.20
431;DHT22;202;48.764;9.172;2023-03-29T13:10:33;17.40;28.00
431;DHT22;202;48.764;9.172;2023-03-29T13:13:10;17.40;26.80
431;DHT22;202;48.764;9.172;2023-03-29T13:15:38;17.40;26.10
431;DHT22;202;48.764;9.172;2023-03-29T13:18:40;17.40;26.10
431;DHT22;202;48.764;9.172;2023-03-29T13:29:00;17.30;25.80
431;DHT22;202;48.764;9.172;2023-03-29T13:31:29;17.20;26.60
431;DHT22;202;48.764;9.172;2023-03-29T13:34:25;16.90;28.40
431;DHT22;202;48.764;9.172;2023-03-29T13:37:03;16.90;29.60
431;DHT22;202;48.764;9.172;2023-03-29T13:39:33;16.90;29.80
431;DHT22;202;48.764;9.172;2023-03-29T13:42:07;17.00;29.90
431;DHT22;202;48.764;9.172;2023-03-29T13:44:41;16.90;30.20
431;DHT22;202;48.764;9.172;2023-03-29T13:47:14;17.00;30.70
431;DHT22;202;48.764;9.172;2023-03-29T13:49:54;17.10;30.70
431;DHT22;202;48.764;9.172;2023-03-29T13:52:26;17.10;30.50
431;DHT22;202;48.764;9.172;2023-03-29T13:54:57;17.00;30.00
431;DHT22;202;48.764;9.172;2023-03-29T13:57:31;16.80;31.30
431;DHT22;202;48.764;9.172;2023-03-29T14:00:04;16.80;31.50
431;DHT22;202;48.764;9.172;2023-03-29T14:02:39;16.60;34.50
431;DHT22;202;48.764;9.172;2023-03-29T14:05:10;16.60;35.90
431;DHT22;202;48.764;9.172;2023-03-29T14:07:42;16.50;37.50
431;DHT22;202;48.764;9.172;2023-03-29T14:10:11;16.40;38.10
431;DHT22;202;48.764;9.172;2023-03-29T14:12:39;16.30;40.50
431;DHT22;202;48.764;9.172;2023-03-29T14:15:22;16.30;42.00
431;DHT22;202;48.764;9.172;2023-03-29T14:17:55;16.20;44.60
431;DHT22;202;48.764;9.172;2023-03-29T14:20:22;16.30;44.80
431;DHT22;202;48.764;9.172;2023-03-29T14:22:52;16.20;46.20
431;DHT22;202;48.764;9.172;2023-03-29T14:25:20;16.20;46.00
431;DHT22;202;48.764;9.172;2023-03-29T14:27:49;16.20;46.30
431;DHT22;202;48.764;9.172;2023-03-29T14:30:29;16.20;45.40
431;DHT22;202;48.764;9.172;2023-03-29T14:32:57;16.10;46.10
431;DHT22;202;48.764;9.172;2023-03-29T14:35:31;16.20;45.20
431;DHT22;202;48.764;9.172;2023-03-29T14:37:58;16.10;43.00
431;DHT22;202;48.764;9.172;2023-03-29T14:40:26;16.10;42.40
431;DHT22;202;48.764;9.172;2023-03-29T14:42:56;16.00;41.70
431;DHT22;202;48.764;9.172;2023-03-29T14:45:25;16.10;40.20
431;DHT22;202;48.764;9.172;2023-03-29T14:47:56;15.90;40.10
431;DHT22;202;48.764;9.172;2023-03-29T14:50:26;15.90;42.20
431;DHT22;202;48.764;9.172;2023-03-29T14:52:56;15.90;41.50
431;DHT22;202;48.764;9.172;2023-03-29T14:55:23;15.90;39.40
431;DHT22;202;48.764;9.172;2023-03-29T14:57:53;15.90;40.60
431;DHT22;202;48.764;9.172;2023-03-29T15:00:25;16.00;40.50
431;DHT22;202;48.764;9.172;2023-03-29T15:02:57;16.10;40.70
431;DHT22;202;48.764;9.172;2023-03-29T15:05:33;16.10;41.60
431;DHT22;202;48.764;9.172;2023-03-29T15:08:03;16.20;41.30
431;DHT22;202;48.764;9.172;2023-03-29T15:10:33;16.00;42.50
431;DHT22;202;48.764;9.172;2023-03-29T15:13:04;16.00;42.60
431;DHT22;202;48.764;9.172;2023-03-29T15:15:35;16.00;43.00
431;DHT22;202;48.764;9.172;2023-03-29T15:18:06;16.00;42.00
431;DHT22;202;48.764;9.172;2023-03-29T15:20:49;16.00;42.70
431;DHT22;202;48.764;9.172;2023-03-29T15:23:22;16.00;42.10
431;DHT22;202;48.764;9.172;2023-03-29T15:25:54;16.00;41.00
431;DHT22;202;48.764;9.172;2023-03-29T15:28:27;16.00;41.90
431;DHT22;202;48.764;9.172;2023-03-29T15:31:00;16.00;42.30
431;DHT22;202;48.764;9.172;2023-03-29T15:33:33;16.00;43.00
431;DHT22;202;48.764;9.172;2023-03-29T15:36:02;16.10;42.60
431;DHT22;202;48.764;9.172;2023-03-29T15:38:33;16.20;42.60
431;DHT22;202;48.764;9.172;2023-03-29T15:41:01;16.20;40.40
431;DHT22;202;48.764;9.172;2023-03-29T15:43:31;16.00;40.90
431;DHT22;202;48.764;9.172;2023-03-29T15:46:05;16.00;40.80
431;DHT22;202;48.764;9.172;2023-03-29T15:48:32;16.00;40.80
431;DHT22;202;48.764;9.172;2023-03-29T15:50:59;16.00;40.90
431;DHT22;202;48.764;9.172;2023-03-29T15:53:27;16.00;41.60
431;DHT22;202;48.764;9.172;2023-03-29T15:55:58;16.10;41.80
431;DHT22;202;48.764;9.172;2023-03-29T15:58:27;16.10;39.80
431;DHT22;202;48.764;9.172;2023-03-29T16:04:45;16.10;40.70
431;DHT22;202;48.764;9.172;2023-03-29T16:07:35;16.10;41.40
431;DHT22;202;48.764;9.172;2023-03-29T16:14:18;16.10;42.30
431;DHT22;202;48.764;9.172;2023-03-29T16:17:21;16.10;42.10
431;DHT22;202;48.764;9.172;2023-03-29T16:20:26;16.20;42.60
431;DHT22;202;48.764;9.172;2023-03-29T16:30:18;16.30;42.90
431;DHT22;202;48.764;9.172;2023-03-29T16:33:17;16.30;42.20
431;DHT22;202;48.764;9.172;2023-03-29T16:50:37;16.40;41.30
431;DHT22;202;48.764;9.172;2023-03-29T16:53:44;16.30;42.10
431;DHT22;202;48.764;9.172;2023-03-29T16:56:50;16.30;41.60
431;DHT22;202;48.764;9.172;2023-03-29T17:00:32;16.30;41.80
431;DHT22;202;48.764;9.172;2023-03-29T17:06:21;16.30;40.80
431;DHT22;202;48.764;9.172;2023-03-29T17:08:59;16.30;40.80
431;DHT22;202;48.764;9.172;2023-03-29T17:12:13;16.30;41.70
431;DHT22;202;48.764;9.172;2023-03-29T17:22:04;16.20;41.80
431;DHT22;202;48.764;9.172;2023-03-29T17:25:39;16.30;42.30
431;DHT22;202;48.764;9.172;2023-03-29T17:32:11;16.10;44.00
431;DHT22;202;48.764;9.172;2023-03-29T17:35:42;16.10;44.20
431;DHT22;202;48.764;9.172;2023-03-29T17:41:03;16.10;47.70
431;DHT22;202;48.764;9.172;2023-03-29T17:43:33;16.00;47.90
431;DHT22;202;48.764;9.172;2023-03-29T17:46:04;16.10;48.60
431;DHT22;202;48.764;9.172;2023-03-29T17:48:32;16.10;49.10
431;DHT22;202;48.764;9.172;2023-03-29T17:51:05;16.00;49.00
431;DHT22;202;48.764;9.172;2023-03-29T17:53:33;16.00;49.00
431;DHT22;202;48.764;9.172;2023-03-29T17:56:18;15.90;48.90
431;DHT22;202;48.764;9.172;2023-03-29T17:58:46;15.90;48.90
431;DHT22;202;48.764;9.172;2023-03-29T18:01:15;15.90;48.90
431;DHT22;202;48.764;9.172;2023-03-29T18:03:52;15.80;44.60
431;DHT22;202;48.764;9.172;2023-03-29T18:06:19;15.80;44.30
431;DHT22;202;48.764;9.172;2023-03-29T18:08:46;15.90;42.80
431;DHT22;202;48.764;9.172;2023-03-29T18:11:15;15.80;40.20
431;DHT22;202;48.764;9.172;2023-03-29T18:13:48;15.80;39.10
431;DHT22;202;48.764;9.172;2023-03-29T18:16:19;15.80;40.70
431;DHT22;202;48.764;9.172;2023-03-29T18:18:47;15.70;40.10
431;DHT22;202;48.764;9.172;2023-03-29T18:21:16;15.70;40.90
431;DHT22;202;48.764;9.172;2023-03-29T18:23:48;15.80;41.70
431;DHT22;202;48.764;9.172;2023-03-29T18:26:19;15.70;41.50
431;DHT22;202;48.764;9.172;2023-03-29T18:28:53;15.70;41.40
431;DHT22;202;48.764;9.172;2023-03-29T18:31:24;15.70;41.30
431;DHT22;202;48.764;9.172;2023-03-29T18:34:02;15.80;40.20
431;DHT22;202;48.764;9.172;2023-03-29T18:36:31;15.80;39.60
431;DHT22;202;48.764;9.172;2023-03-29T18:39:06;15.80;40.10
431;DHT22;202;48.764;9.172;2023-03-29T18:41:38;15.70;40.00
431;DHT22;202;48.764;9.172;2023-03-29T18:44:18;15.70;40.80
431;DHT22;202;48.764;9.172;2023-03-29T18:46:46;15.70;40.20
431;DHT22;202;48.764;9.172;2023-03-29T18:49:18;15.70;41.00
431;DHT22;202;48.764;9.172;2023-03-29T18:51:49;15.70;41.10
431;DHT22;202;48.764;9.172;2023-03-29T18:54:21;15.70;41.10
431;DHT22;202;48.764;9.172;2023-03-29T18:56:48;15.70;40.80
431;DHT22;202;48.764;9.172;2023-03-29T18:59:31;15.60;41.30
431;DHT22;202;48.764;9.172;2023-03-29T19:02:07;15.60;41.80
431;DHT22;202;48.764;9.172;2023-03-29T19:04:37;15.60;41.70
431;DHT22;202;48.764;9.172;2023-03-29T19:07:04;15.50;42.10
431;DHT22;202;48.764;9.172;2023-03-29T19:09:39;15.50;42.50
431;DHT22;202;48.764;9.172;2023-03-29T19:12:13;15.40;42.60
431;DHT22;202;48.764;9.172;2023-03-29T19:14:44;15.40;42.30
431;DHT22;202;48.764;9.172;2023-03-29T19:17:34;15.40;42.60
431;DHT22;202;48.764;9.172;2023-03-29T19:20:08;15.40;43.20
431;DHT22;202;48.764;9.172;2023-03-29T19:22:38;15.30;43.50
431;DHT22;202;48.764;9.172;2023-03-29T19:25:11;15.30;42.10
431;DHT22;202;48.764;9.172;2023-03-29T19:27:47;15.30;41.80
431;DHT22;202;48.764;9.172;2023-03-29T19:30:22;15.30;41.60
431;DHT22;202;48.764;9.172;2023-03-29T19:32:51;15.20;40.80
431;DHT22;202;48.764;9.172;2023-03-29T19:35:24;15.20;41.40
431;DHT22;202;48.764;9.172;2023-03-29T19:38:03;15.10;42.20
431;DHT22;202;48.764;9.172;2023-03-29T19:40:32;15.10;41.90
431;DHT22;202;48.764;9.172;2023-03-29T19:43:08;15.10;42.20
431;DHT22;202;48.764;9.172;2023-03-29T19:45:43;15.10;42.20
431;DHT22;202;48.764;9.172;2023-03-29T19:48:32;15.20;41.70
431;DHT22;202;48.764;9.172;2023-03-29T19:51:15;15.20;41.70
431;DHT22;202;48.764;9.172;2023-03-29T19:53:47;15.20;41.20
431;DHT22;202;48.764;9.172;2023-03-29T19:56:21;15.20;41.10
431;DHT22;202;48.764;9.172;2023-03-29T19:58:54;15.20;40.90
431;DHT22;202;48.764;9.172;2023-03-29T20:01:44;15.10;41.10
431;DHT22;202;48.764;9.172;2023-03-29T20:04:18;15.20;41.20
431;DHT22;202;48.764;9.172;2023-03-29T20:07:02;15.20;41.00
431;DHT22;202;48.764;9.172;2023-03-29T20:09:49;15.20;40.70
431;DHT22;202;48.764;9.172;2023-03-29T20:12:24;15.20;40.90
431;DHT22;202;48.764;9.172;2023-03-29T20:15:00;15.10;41.20
431;DHT22;202;48.764;9.172;2023-03-29T20:17:39;15.10;41.20
431;DHT22;202;48.764;9.172;2023-03-29T20:20:13;15.10;41.50
431;DHT22;202;48.764;9.172;2023-03-29T20:22:53;15.10;41.50
431;DHT22;202;48.764;9.172;2023-03-29T20:25:26;15.00;41.20
431;DHT22;202;48.764;9.172;2023-03-29T20:27:54;15.00;41.70
431;DHT22;202;48.764;9.172;2023-03-29T20:30:22;15.00;41.50